Lytle, Ohio
Current Conditions -  °F | °C
As of 4:53 PM on Sunday 23 Nov 2014 (Local Time) from KMGY Reporting Station
Broken Clouds Broken Clouds  
Wind Chill: 57°   Ceiling: 10000
Heat Index: 57°   Visibility: 10mi
Dew Point: 46°   Wind: 12mph
Humidity: 67%   Direction: 130°SE
Pressure: 29.58"   Gusts: NA
Location:  39.5416°N, 84.0704°W
Report Text: KMGY 232153Z AUTO 13010KT 10SM FEW050 BKN100 BKN120 14/08 A2958 RMK AO2 RAB00E46 PRESFR SLP014 P0000 T01390078
Loading
Personal Weather Stations






























Interactive Weather Map New forecast layout! Learn more

10-Day Weather Forecast

Advertisements
Track Severe Weather on mobile